sensor_id;sensor_type;location;lat;lon;timestamp;P1;durP1;ratioP1;P2;durP2;ratioP2
1390;SDS011;690;51.454;7.194;2022-10-03T00:02:01;12.67;;;6.73;;
1390;SDS011;690;51.454;7.194;2022-10-03T00:04:39;18.60;;;5.63;;
1390;SDS011;690;51.454;7.194;2022-10-03T00:07:28;17.97;;;5.53;;
1390;SDS011;690;51.454;7.194;2022-10-03T00:10:09;14.67;;;5.20;;
1390;SDS011;690;51.454;7.194;2022-10-03T00:12:55;12.30;;;5.57;;
1390;SDS011;690;51.454;7.194;2022-10-03T00:15:33;10.53;;;5.50;;
1390;SDS011;690;51.454;7.194;2022-10-03T00:18:09;14.10;;;5.87;;
1390;SDS011;690;51.454;7.194;2022-10-03T00:20:52;14.27;;;6.20;;
1390;SDS011;690;51.454;7.194;2022-10-03T00:23:37;14.70;;;5.70;;
1390;SDS011;690;51.454;7.194;2022-10-03T00:26:11;15.13;;;5.90;;
1390;SDS011;690;51.454;7.194;2022-10-03T00:29:00;16.57;;;5.47;;
1390;SDS011;690;51.454;7.194;2022-10-03T00:31:38;20.13;;;7.20;;
1390;SDS011;690;51.454;7.194;2022-10-03T00:34:14;12.93;;;5.33;;
1390;SDS011;690;51.454;7.194;2022-10-03T00:36:52;24.73;;;6.77;;
1390;SDS011;690;51.454;7.194;2022-10-03T00:39:31;20.23;;;5.47;;
1390;SDS011;690;51.454;7.194;2022-10-03T00:45:29;18.63;;;5.53;;
1390;SDS011;690;51.454;7.194;2022-10-03T00:48:17;13.53;;;5.10;;
1390;SDS011;690;51.454;7.194;2022-10-03T00:54:01;15.13;;;5.50;;
1390;SDS011;690;51.454;7.194;2022-10-03T00:56:56;12.90;;;5.30;;
1390;SDS011;690;51.454;7.194;2022-10-03T00:59:49;20.23;;;6.20;;
1390;SDS011;690;51.454;7.194;2022-10-03T01:02:33;16.60;;;6.10;;
1390;SDS011;690;51.454;7.194;2022-10-03T01:05:14;13.43;;;6.50;;
1390;SDS011;690;51.454;7.194;2022-10-03T01:08:03;18.50;;;6.60;;
1390;SDS011;690;51.454;7.194;2022-10-03T01:10:45;14.10;;;6.87;;
1390;SDS011;690;51.454;7.194;2022-10-03T01:13:24;15.00;;;6.07;;
1390;SDS011;690;51.454;7.194;2022-10-03T01:16:04;20.13;;;6.20;;
1390;SDS011;690;51.454;7.194;2022-10-03T01:18:46;19.00;;;6.40;;
1390;SDS011;690;51.454;7.194;2022-10-03T01:21:27;13.13;;;5.80;;
1390;SDS011;690;51.454;7.194;2022-10-03T01:24:12;21.07;;;6.80;;
1390;SDS011;690;51.454;7.194;2022-10-03T01:26:58;15.80;;;6.37;;
1390;SDS011;690;51.454;7.194;2022-10-03T01:29:39;13.57;;;6.23;;
1390;SDS011;690;51.454;7.194;2022-10-03T01:32:32;16.07;;;6.70;;
1390;SDS011;690;51.454;7.194;2022-10-03T01:35:13;16.17;;;7.17;;
1390;SDS011;690;51.454;7.194;2022-10-03T01:37:51;15.37;;;6.47;;
1390;SDS011;690;51.454;7.194;2022-10-03T01:40:24;16.43;;;6.37;;
1390;SDS011;690;51.454;7.194;2022-10-03T01:42:57;18.10;;;8.53;;
1390;SDS011;690;51.454;7.194;2022-10-03T01:45:36;16.17;;;6.70;;
1390;SDS011;690;51.454;7.194;2022-10-03T01:48:11;11.37;;;6.30;;
1390;SDS011;690;51.454;7.194;2022-10-03T01:50:51;15.30;;;6.50;;
1390;SDS011;690;51.454;7.194;2022-10-03T01:53:28;22.80;;;7.40;;
1390;SDS011;690;51.454;7.194;2022-10-03T01:56:05;15.90;;;6.50;;
1390;SDS011;690;51.454;7.194;2022-10-03T01:58:39;19.13;;;7.03;;
1390;SDS011;690;51.454;7.194;2022-10-03T02:01:20;20.63;;;7.03;;
1390;SDS011;690;51.454;7.194;2022-10-03T02:03:53;12.23;;;6.90;;
1390;SDS011;690;51.454;7.194;2022-10-03T02:06:31;18.00;;;7.53;;
1390;SDS011;690;51.454;7.194;2022-10-03T02:09:08;19.43;;;7.43;;
1390;SDS011;690;51.454;7.194;2022-10-03T02:11:43;18.20;;;7.27;;
1390;SDS011;690;51.454;7.194;2022-10-03T02:14:29;18.73;;;8.00;;
1390;SDS011;690;51.454;7.194;2022-10-03T02:17:07;13.03;;;6.50;;
1390;SDS011;690;51.454;7.194;2022-10-03T02:19:46;13.53;;;7.57;;
1390;SDS011;690;51.454;7.194;2022-10-03T02:22:27;16.77;;;7.10;;
1390;SDS011;690;51.454;7.194;2022-10-03T02:25:01;20.57;;;7.43;;
1390;SDS011;690;51.454;7.194;2022-10-03T02:27:41;11.73;;;6.80;;
1390;SDS011;690;51.454;7.194;2022-10-03T02:30:44;13.90;;;6.93;;
1390;SDS011;690;51.454;7.194;2022-10-03T02:36:43;19.00;;;8.50;;
1390;SDS011;690;51.454;7.194;2022-10-03T02:39:29;18.57;;;7.50;;
1390;SDS011;690;51.454;7.194;2022-10-03T02:42:30;16.43;;;8.93;;
1390;SDS011;690;51.454;7.194;2022-10-03T02:45:27;22.10;;;7.47;;
1390;SDS011;690;51.454;7.194;2022-10-03T02:48:25;19.43;;;8.93;;
1390;SDS011;690;51.454;7.194;2022-10-03T02:54:29;14.97;;;8.73;;
1390;SDS011;690;51.454;7.194;2022-10-03T03:00:13;22.70;;;7.93;;
1390;SDS011;690;51.454;7.194;2022-10-03T03:09:06;19.77;;;7.90;;
1390;SDS011;690;51.454;7.194;2022-10-03T03:18:08;18.63;;;8.17;;
1390;SDS011;690;51.454;7.194;2022-10-03T03:20:42;16.60;;;9.00;;
1390;SDS011;690;51.454;7.194;2022-10-03T03:23:27;22.57;;;8.47;;
1390;SDS011;690;51.454;7.194;2022-10-03T03:29:19;18.73;;;8.40;;
1390;SDS011;690;51.454;7.194;2022-10-03T03:31:57;15.03;;;8.70;;
1390;SDS011;690;51.454;7.194;2022-10-03T03:34:30;16.70;;;8.60;;
1390;SDS011;690;51.454;7.194;2022-10-03T03:37:04;19.63;;;8.60;;
1390;SDS011;690;51.454;7.194;2022-10-03T03:39:42;24.00;;;9.13;;
1390;SDS011;690;51.454;7.194;2022-10-03T03:42:26;24.60;;;10.23;;
1390;SDS011;690;51.454;7.194;2022-10-03T03:45:17;17.47;;;8.60;;
1390;SDS011;690;51.454;7.194;2022-10-03T03:48:17;21.13;;;9.30;;
1390;SDS011;690;51.454;7.194;2022-10-03T03:51:15;18.00;;;9.03;;
1390;SDS011;690;51.454;7.194;2022-10-03T03:53:56;20.10;;;9.03;;
1390;SDS011;690;51.454;7.194;2022-10-03T03:56:58;22.20;;;9.10;;
1390;SDS011;690;51.454;7.194;2022-10-03T03:59:37;19.93;;;8.93;;
1390;SDS011;690;51.454;7.194;2022-10-03T04:02:22;20.50;;;10.20;;
1390;SDS011;690;51.454;7.194;2022-10-03T04:05:00;22.03;;;11.20;;
1390;SDS011;690;51.454;7.194;2022-10-03T04:07:42;20.80;;;9.77;;
1390;SDS011;690;51.454;7.194;2022-10-03T04:10:16;22.57;;;9.80;;
1390;SDS011;690;51.454;7.194;2022-10-03T04:16:03;23.47;;;10.47;;
1390;SDS011;690;51.454;7.194;2022-10-03T04:19:08;22.40;;;10.00;;
1390;SDS011;690;51.454;7.194;2022-10-03T04:21:41;22.37;;;9.53;;
1390;SDS011;690;51.454;7.194;2022-10-03T04:27:36;27.77;;;10.80;;
1390;SDS011;690;51.454;7.194;2022-10-03T04:30:13;17.23;;;10.50;;
1390;SDS011;690;51.454;7.194;2022-10-03T04:32:56;25.27;;;10.70;;
1390;SDS011;690;51.454;7.194;2022-10-03T04:35:36;22.40;;;10.70;;
1390;SDS011;690;51.454;7.194;2022-10-03T04:38:22;25.97;;;11.10;;
1390;SDS011;690;51.454;7.194;2022-10-03T04:41:06;25.17;;;11.00;;
1390;SDS011;690;51.454;7.194;2022-10-03T04:43:43;17.70;;;11.00;;
1390;SDS011;690;51.454;7.194;2022-10-03T04:46:21;21.67;;;11.27;;
1390;SDS011;690;51.454;7.194;2022-10-03T04:48:54;26.67;;;11.60;;
1390;SDS011;690;51.454;7.194;2022-10-03T04:51:30;21.17;;;12.57;;
1390;SDS011;690;51.454;7.194;2022-10-03T04:54:11;26.00;;;13.00;;
1390;SDS011;690;51.454;7.194;2022-10-03T04:56:47;33.67;;;13.10;;
1390;SDS011;690;51.454;7.194;2022-10-03T04:59:33;26.00;;;11.73;;
1390;SDS011;690;51.454;7.194;2022-10-03T05:08:04;23.70;;;10.70;;
1390;SDS011;690;51.454;7.194;2022-10-03T05:10:51;24.00;;;11.97;;
1390;SDS011;690;51.454;7.194;2022-10-03T05:13:32;22.00;;;10.33;;
1390;SDS011;690;51.454;7.194;2022-10-03T05:16:14;20.70;;;10.97;;
1390;SDS011;690;51.454;7.194;2022-10-03T05:18:46;25.10;;;11.50;;
1390;SDS011;690;51.454;7.194;2022-10-03T05:21:25;18.67;;;10.30;;
1390;SDS011;690;51.454;7.194;2022-10-03T05:24:12;26.97;;;12.80;;
1390;SDS011;690;51.454;7.194;2022-10-03T05:26:48;19.80;;;11.13;;
1390;SDS011;690;51.454;7.194;2022-10-03T05:29:25;20.00;;;10.70;;
1390;SDS011;690;51.454;7.194;2022-10-03T05:32:05;26.13;;;11.73;;
1390;SDS011;690;51.454;7.194;2022-10-03T05:34:50;22.87;;;10.70;;
1390;SDS011;690;51.454;7.194;2022-10-03T05:37:36;23.10;;;10.80;;
1390;SDS011;690;51.454;7.194;2022-10-03T05:40:17;25.73;;;11.83;;
1390;SDS011;690;51.454;7.194;2022-10-03T05:42:58;20.00;;;10.77;;
1390;SDS011;690;51.454;7.194;2022-10-03T05:45:30;20.87;;;10.97;;
1390;SDS011;690;51.454;7.194;2022-10-03T05:48:12;21.63;;;10.97;;
1390;SDS011;690;51.454;7.194;2022-10-03T05:50:54;26.63;;;11.53;;
1390;SDS011;690;51.454;7.194;2022-10-03T05:53:50;19.70;;;10.30;;
1390;SDS011;690;51.454;7.194;2022-10-03T05:56:39;26.57;;;11.63;;
1390;SDS011;690;51.454;7.194;2022-10-03T05:59:40;21.50;;;10.33;;
1390;SDS011;690;51.454;7.194;2022-10-03T06:02:37;20.13;;;10.47;;
1390;SDS011;690;51.454;7.194;2022-10-03T06:05:31;24.10;;;11.90;;
1390;SDS011;690;51.454;7.194;2022-10-03T06:08:16;33.70;;;12.20;;
1390;SDS011;690;51.454;7.194;2022-10-03T06:11:13;27.13;;;10.87;;
1390;SDS011;690;51.454;7.194;2022-10-03T06:14:16;29.53;;;11.87;;
1390;SDS011;690;51.454;7.194;2022-10-03T06:17:17;28.00;;;11.83;;
1390;SDS011;690;51.454;7.194;2022-10-03T06:20:10;23.90;;;12.83;;
1390;SDS011;690;51.454;7.194;2022-10-03T06:23:12;24.23;;;10.83;;
1390;SDS011;690;51.454;7.194;2022-10-03T06:26:12;20.40;;;12.37;;
1390;SDS011;690;51.454;7.194;2022-10-03T06:32:13;27.07;;;12.30;;
1390;SDS011;690;51.454;7.194;2022-10-03T06:35:04;20.43;;;11.43;;
1390;SDS011;690;51.454;7.194;2022-10-03T06:41:21;19.50;;;11.17;;
1390;SDS011;690;51.454;7.194;2022-10-03T06:47:15;25.03;;;11.77;;
1390;SDS011;690;51.454;7.194;2022-10-03T06:50:02;24.60;;;11.30;;
1390;SDS011;690;51.454;7.194;2022-10-03T06:52:53;19.10;;;10.97;;
1390;SDS011;690;51.454;7.194;2022-10-03T06:55:58;16.90;;;10.50;;
1390;SDS011;690;51.454;7.194;2022-10-03T07:01:47;20.60;;;10.87;;
1390;SDS011;690;51.454;7.194;2022-10-03T07:07:59;22.40;;;10.60;;
1390;SDS011;690;51.454;7.194;2022-10-03T07:10:52;20.17;;;10.70;;
1390;SDS011;690;51.454;7.194;2022-10-03T07:13:42;19.20;;;10.57;;
1390;SDS011;690;51.454;7.194;2022-10-03T07:16:37;25.20;;;12.10;;
1390;SDS011;690;51.454;7.194;2022-10-03T07:25:43;21.50;;;11.30;;
1390;SDS011;690;51.454;7.194;2022-10-03T07:31:47;24.27;;;11.00;;
1390;SDS011;690;51.454;7.194;2022-10-03T07:34:33;28.10;;;11.30;;
1390;SDS011;690;51.454;7.194;2022-10-03T07:37:35;18.57;;;11.57;;
1390;SDS011;690;51.454;7.194;2022-10-03T07:50:04;22.40;;;10.13;;
1390;SDS011;690;51.454;7.194;2022-10-03T07:52:58;29.13;;;10.90;;
1390;SDS011;690;51.454;7.194;2022-10-03T07:55:41;26.80;;;12.50;;
1390;SDS011;690;51.454;7.194;2022-10-03T07:58:45;19.40;;;9.90;;
1390;SDS011;690;51.454;7.194;2022-10-03T08:01:30;22.33;;;12.17;;
1390;SDS011;690;51.454;7.194;2022-10-03T08:04:27;17.60;;;10.80;;
1390;SDS011;690;51.454;7.194;2022-10-03T08:07:34;14.00;;;9.87;;
1390;SDS011;690;51.454;7.194;2022-10-03T08:10:37;20.33;;;10.70;;
1390;SDS011;690;51.454;7.194;2022-10-03T08:13:30;15.13;;;9.73;;
1390;SDS011;690;51.454;7.194;2022-10-03T08:16:20;18.60;;;8.73;;
1390;SDS011;690;51.454;7.194;2022-10-03T08:19:05;17.23;;;8.83;;
1390;SDS011;690;51.454;7.194;2022-10-03T08:21:46;16.63;;;8.50;;
1390;SDS011;690;51.454;7.194;2022-10-03T08:27:38;22.20;;;8.77;;
1390;SDS011;690;51.454;7.194;2022-10-03T08:30:20;21.03;;;9.30;;
1390;SDS011;690;51.454;7.194;2022-10-03T08:38:51;18.33;;;9.00;;
1390;SDS011;690;51.454;7.194;2022-10-03T08:41:38;20.97;;;10.10;;
1390;SDS011;690;51.454;7.194;2022-10-03T08:50:53;16.30;;;11.50;;
1390;SDS011;690;51.454;7.194;2022-10-03T08:56:30;18.27;;;8.70;;
1390;SDS011;690;51.454;7.194;2022-10-03T08:59:20;15.70;;;7.73;;
1390;SDS011;690;51.454;7.194;2022-10-03T09:05:24;11.70;;;6.33;;
1390;SDS011;690;51.454;7.194;2022-10-03T09:11:30;12.43;;;5.90;;
1390;SDS011;690;51.454;7.194;2022-10-03T09:14:28;20.27;;;7.40;;
1390;SDS011;690;51.454;7.194;2022-10-03T09:17:03;20.13;;;6.70;;
1390;SDS011;690;51.454;7.194;2022-10-03T09:20:00;15.37;;;8.57;;
1390;SDS011;690;51.454;7.194;2022-10-03T09:22:56;13.93;;;6.17;;
1390;SDS011;690;51.454;7.194;2022-10-03T09:28:53;14.80;;;6.07;;
1390;SDS011;690;51.454;7.194;2022-10-03T09:31:50;15.60;;;6.80;;
1390;SDS011;690;51.454;7.194;2022-10-03T09:34:46;14.87;;;6.97;;
1390;SDS011;690;51.454;7.194;2022-10-03T09:37:41;12.43;;;5.40;;
1390;SDS011;690;51.454;7.194;2022-10-03T09:40:41;15.50;;;6.20;;
1390;SDS011;690;51.454;7.194;2022-10-03T09:46:33;11.17;;;6.17;;
1390;SDS011;690;51.454;7.194;2022-10-03T09:52:32;14.27;;;5.37;;
1390;SDS011;690;51.454;7.194;2022-10-03T09:55:28;15.33;;;6.07;;
1390;SDS011;690;51.454;7.194;2022-10-03T09:58:04;11.20;;;5.63;;
1390;SDS011;690;51.454;7.194;2022-10-03T10:01:01;13.97;;;5.33;;
1390;SDS011;690;51.454;7.194;2022-10-03T10:03:59;14.13;;;5.30;;
1390;SDS011;690;51.454;7.194;2022-10-03T10:07:02;10.07;;;4.30;;
1390;SDS011;690;51.454;7.194;2022-10-03T10:09:53;11.90;;;4.80;;
1390;SDS011;690;51.454;7.194;2022-10-03T10:12:56;9.40;;;4.20;;
1390;SDS011;690;51.454;7.194;2022-10-03T10:15:59;12.40;;;4.90;;
1390;SDS011;690;51.454;7.194;2022-10-03T10:22:00;10.70;;;4.60;;
1390;SDS011;690;51.454;7.194;2022-10-03T10:24:45;11.70;;;3.77;;
1390;SDS011;690;51.454;7.194;2022-10-03T10:28:02;9.53;;;2.83;;
1390;SDS011;690;51.454;7.194;2022-10-03T10:31:18;10.00;;;3.30;;
1390;SDS011;690;51.454;7.194;2022-10-03T10:34:45;7.83;;;2.77;;
1390;SDS011;690;51.454;7.194;2022-10-03T10:40:51;7.00;;;2.60;;
1390;SDS011;690;51.454;7.194;2022-10-03T10:44:03;6.13;;;2.43;;
1390;SDS011;690;51.454;7.194;2022-10-03T10:59:42;9.03;;;2.10;;
1390;SDS011;690;51.454;7.194;2022-10-03T11:12:21;4.97;;;2.17;;
1390;SDS011;690;51.454;7.194;2022-10-03T11:15:23;6.07;;;2.00;;
1390;SDS011;690;51.454;7.194;2022-10-03T11:24:31;4.10;;;1.50;;
1390;SDS011;690;51.454;7.194;2022-10-03T11:27:40;4.00;;;1.47;;
1390;SDS011;690;51.454;7.194;2022-10-03T11:30:53;7.23;;;2.50;;
1390;SDS011;690;51.454;7.194;2022-10-03T11:33:55;6.53;;;2.50;;
1390;SDS011;690;51.454;7.194;2022-10-03T11:39:40;8.80;;;2.03;;
1390;SDS011;690;51.454;7.194;2022-10-03T11:42:15;4.20;;;1.37;;
1390;SDS011;690;51.454;7.194;2022-10-03T11:44:56;2.73;;;1.27;;
1390;SDS011;690;51.454;7.194;2022-10-03T11:53:13;7.17;;;1.50;;
1390;SDS011;690;51.454;7.194;2022-10-03T11:56:19;4.20;;;1.77;;
1390;SDS011;690;51.454;7.194;2022-10-03T11:59:00;2.37;;;1.20;;
1390;SDS011;690;51.454;7.194;2022-10-03T12:01:41;3.90;;;1.17;;
1390;SDS011;690;51.454;7.194;2022-10-03T12:04:23;4.60;;;1.80;;
1390;SDS011;690;51.454;7.194;2022-10-03T12:06:56;6.00;;;1.20;;
1390;SDS011;690;51.454;7.194;2022-10-03T12:09:54;3.17;;;1.20;;
1390;SDS011;690;51.454;7.194;2022-10-03T12:12:29;4.33;;;1.33;;
1390;SDS011;690;51.454;7.194;2022-10-03T12:15:13;4.90;;;1.20;;
1390;SDS011;690;51.454;7.194;2022-10-03T12:17:57;5.60;;;1.30;;
1390;SDS011;690;51.454;7.194;2022-10-03T12:20:50;2.73;;;1.03;;
1390;SDS011;690;51.454;7.194;2022-10-03T12:23:32;6.93;;;1.30;;
1390;SDS011;690;51.454;7.194;2022-10-03T12:26:26;2.70;;;1.33;;
1390;SDS011;690;51.454;7.194;2022-10-03T12:29:06;3.67;;;1.67;;
1390;SDS011;690;51.454;7.194;2022-10-03T12:31:38;5.10;;;1.70;;
1390;SDS011;690;51.454;7.194;2022-10-03T12:34:19;6.20;;;1.47;;
1390;SDS011;690;51.454;7.194;2022-10-03T12:37:02;5.97;;;1.50;;
1390;SDS011;690;51.454;7.194;2022-10-03T12:39:43;5.10;;;2.17;;
1390;SDS011;690;51.454;7.194;2022-10-03T12:42:28;4.77;;;1.50;;
1390;SDS011;690;51.454;7.194;2022-10-03T12:44:59;4.73;;;1.30;;
1390;SDS011;690;51.454;7.194;2022-10-03T12:47:34;3.47;;;1.10;;
1390;SDS011;690;51.454;7.194;2022-10-03T12:50:16;6.87;;;1.80;;
1390;SDS011;690;51.454;7.194;2022-10-03T12:53:00;3.10;;;1.10;;
1390;SDS011;690;51.454;7.194;2022-10-03T12:55:54;5.50;;;1.53;;
1390;SDS011;690;51.454;7.194;2022-10-03T12:58:30;4.37;;;1.20;;
1390;SDS011;690;51.454;7.194;2022-10-03T13:01:09;6.93;;;1.70;;
1390;SDS011;690;51.454;7.194;2022-10-03T13:03:48;6.03;;;1.50;;
1390;SDS011;690;51.454;7.194;2022-10-03T13:09:19;4.00;;;1.53;;
1390;SDS011;690;51.454;7.194;2022-10-03T13:11:57;2.53;;;1.00;;
1390;SDS011;690;51.454;7.194;2022-10-03T13:14:34;5.23;;;1.77;;
1390;SDS011;690;51.454;7.194;2022-10-03T13:17:32;7.37;;;2.67;;
1390;SDS011;690;51.454;7.194;2022-10-03T13:20:14;7.47;;;1.70;;
1390;SDS011;690;51.454;7.194;2022-10-03T13:22:49;6.27;;;1.43;;
1390;SDS011;690;51.454;7.194;2022-10-03T13:25:28;5.00;;;1.90;;
1390;SDS011;690;51.454;7.194;2022-10-03T13:28:04;3.50;;;1.40;;
1390;SDS011;690;51.454;7.194;2022-10-03T13:30:37;3.30;;;1.80;;
1390;SDS011;690;51.454;7.194;2022-10-03T13:33:13;7.93;;;2.40;;
1390;SDS011;690;51.454;7.194;2022-10-03T13:35:43;7.00;;;1.60;;
1390;SDS011;690;51.454;7.194;2022-10-03T13:38:34;4.43;;;1.90;;
1390;SDS011;690;51.454;7.194;2022-10-03T13:41:27;3.23;;;1.27;;
1390;SDS011;690;51.454;7.194;2022-10-03T13:44:07;6.33;;;1.90;;
1390;SDS011;690;51.454;7.194;2022-10-03T13:46:42;3.90;;;1.40;;
1390;SDS011;690;51.454;7.194;2022-10-03T13:49:15;2.57;;;1.63;;
1390;SDS011;690;51.454;7.194;2022-10-03T13:51:56;4.20;;;1.77;;
1390;SDS011;690;51.454;7.194;2022-10-03T13:54:50;4.53;;;1.53;;
1390;SDS011;690;51.454;7.194;2022-10-03T13:57:34;6.47;;;2.30;;
1390;SDS011;690;51.454;7.194;2022-10-03T14:00:07;9.80;;;2.37;;
1390;SDS011;690;51.454;7.194;2022-10-03T14:02:50;6.20;;;2.80;;
1390;SDS011;690;51.454;7.194;2022-10-03T14:08:37;5.87;;;1.50;;
1390;SDS011;690;51.454;7.194;2022-10-03T14:11:36;6.40;;;1.60;;
1390;SDS011;690;51.454;7.194;2022-10-03T14:17:03;4.33;;;1.57;;
1390;SDS011;690;51.454;7.194;2022-10-03T14:19:38;3.43;;;1.70;;
1390;SDS011;690;51.454;7.194;2022-10-03T14:22:16;6.93;;;1.73;;
1390;SDS011;690;51.454;7.194;2022-10-03T14:24:54;5.07;;;1.53;;
1390;SDS011;690;51.454;7.194;2022-10-03T14:27:36;6.13;;;1.37;;
1390;SDS011;690;51.454;7.194;2022-10-03T14:30:10;3.83;;;1.93;;
1390;SDS011;690;51.454;7.194;2022-10-03T14:32:43;5.00;;;1.73;;
1390;SDS011;690;51.454;7.194;2022-10-03T14:35:24;4.90;;;1.63;;
1390;SDS011;690;51.454;7.194;2022-10-03T14:38:19;3.20;;;1.80;;
1390;SDS011;690;51.454;7.194;2022-10-03T14:41:17;7.00;;;1.70;;
1390;SDS011;690;51.454;7.194;2022-10-03T14:43:51;3.70;;;1.40;;
1390;SDS011;690;51.454;7.194;2022-10-03T14:46:20;8.23;;;1.93;;
1390;SDS011;690;51.454;7.194;2022-10-03T14:48:50;3.23;;;1.40;;
1390;SDS011;690;51.454;7.194;2022-10-03T14:51:25;8.83;;;2.43;;
1390;SDS011;690;51.454;7.194;2022-10-03T14:53:56;7.27;;;2.30;;
1390;SDS011;690;51.454;7.194;2022-10-03T14:56:26;6.73;;;2.67;;
1390;SDS011;690;51.454;7.194;2022-10-03T14:58:58;5.73;;;2.40;;
1390;SDS011;690;51.454;7.194;2022-10-03T15:01:28;4.70;;;1.93;;
1390;SDS011;690;51.454;7.194;2022-10-03T15:03:57;3.70;;;1.60;;
1390;SDS011;690;51.454;7.194;2022-10-03T15:06:32;6.07;;;2.30;;
1390;SDS011;690;51.454;7.194;2022-10-03T15:09:19;9.60;;;1.70;;
1390;SDS011;690;51.454;7.194;2022-10-03T15:11:52;8.00;;;1.63;;
1390;SDS011;690;51.454;7.194;2022-10-03T15:14:27;3.73;;;1.30;;
1390;SDS011;690;51.454;7.194;2022-10-03T15:16:58;4.57;;;1.33;;
1390;SDS011;690;51.454;7.194;2022-10-03T15:19:29;5.13;;;1.50;;
1390;SDS011;690;51.454;7.194;2022-10-03T15:22:03;2.30;;;1.30;;
1390;SDS011;690;51.454;7.194;2022-10-03T15:24:38;7.13;;;1.63;;
1390;SDS011;690;51.454;7.194;2022-10-03T15:27:07;5.53;;;1.80;;
1390;SDS011;690;51.454;7.194;2022-10-03T15:29:39;8.20;;;2.03;;
1390;SDS011;690;51.454;7.194;2022-10-03T15:32:08;4.13;;;1.40;;
1390;SDS011;690;51.454;7.194;2022-10-03T15:34:46;4.43;;;1.33;;
1390;SDS011;690;51.454;7.194;2022-10-03T15:37:17;3.20;;;1.50;;
1390;SDS011;690;51.454;7.194;2022-10-03T15:39:47;6.80;;;1.70;;
1390;SDS011;690;51.454;7.194;2022-10-03T15:42:20;5.63;;;1.93;;
1390;SDS011;690;51.454;7.194;2022-10-03T15:44:51;5.13;;;1.20;;
1390;SDS011;690;51.454;7.194;2022-10-03T15:47:22;6.97;;;1.57;;
1390;SDS011;690;51.454;7.194;2022-10-03T15:49:52;13.53;;;2.00;;
1390;SDS011;690;51.454;7.194;2022-10-03T15:52:26;4.97;;;1.50;;
1390;SDS011;690;51.454;7.194;2022-10-03T15:54:58;6.47;;;1.93;;
1390;SDS011;690;51.454;7.194;2022-10-03T15:57:30;3.37;;;1.33;;
1390;SDS011;690;51.454;7.194;2022-10-03T16:00:01;10.87;;;4.53;;
1390;SDS011;690;51.454;7.194;2022-10-03T16:02:32;4.27;;;2.00;;
1390;SDS011;690;51.454;7.194;2022-10-03T16:05:02;4.87;;;2.00;;
1390;SDS011;690;51.454;7.194;2022-10-03T16:07:34;4.60;;;1.80;;
1390;SDS011;690;51.454;7.194;2022-10-03T16:10:11;5.00;;;1.80;;
1390;SDS011;690;51.454;7.194;2022-10-03T16:12:50;6.73;;;2.17;;
1390;SDS011;690;51.454;7.194;2022-10-03T16:15:25;6.07;;;1.90;;
1390;SDS011;690;51.454;7.194;2022-10-03T16:18:00;4.97;;;1.50;;
1390;SDS011;690;51.454;7.194;2022-10-03T16:20:33;5.13;;;1.80;;
1390;SDS011;690;51.454;7.194;2022-10-03T16:23:08;4.07;;;2.23;;
1390;SDS011;690;51.454;7.194;2022-10-03T16:25:43;4.60;;;3.27;;
1390;SDS011;690;51.454;7.194;2022-10-03T16:28:14;5.60;;;2.30;;
1390;SDS011;690;51.454;7.194;2022-10-03T16:30:49;7.93;;;2.63;;
1390;SDS011;690;51.454;7.194;2022-10-03T16:33:22;8.13;;;1.90;;
1390;SDS011;690;51.454;7.194;2022-10-03T16:35:52;6.63;;;2.23;;
1390;SDS011;690;51.454;7.194;2022-10-03T16:38:23;6.10;;;2.03;;
1390;SDS011;690;51.454;7.194;2022-10-03T16:40:53;6.27;;;3.27;;
1390;SDS011;690;51.454;7.194;2022-10-03T16:43:22;5.83;;;3.10;;
1390;SDS011;690;51.454;7.194;2022-10-03T16:45:51;5.33;;;3.10;;
1390;SDS011;690;51.454;7.194;2022-10-03T16:48:22;8.80;;;3.30;;
1390;SDS011;690;51.454;7.194;2022-10-03T16:51:14;6.60;;;2.73;;
1390;SDS011;690;51.454;7.194;2022-10-03T16:53:44;5.00;;;2.27;;
1390;SDS011;690;51.454;7.194;2022-10-03T16:56:15;4.93;;;2.60;;
1390;SDS011;690;51.454;7.194;2022-10-03T16:58:46;4.90;;;2.50;;
1390;SDS011;690;51.454;7.194;2022-10-03T17:01:22;11.47;;;3.27;;
1390;SDS011;690;51.454;7.194;2022-10-03T17:03:57;7.83;;;2.77;;
1390;SDS011;690;51.454;7.194;2022-10-03T17:06:34;5.80;;;3.00;;
1390;SDS011;690;51.454;7.194;2022-10-03T17:09:05;4.40;;;2.67;;
1390;SDS011;690;51.454;7.194;2022-10-03T17:11:40;4.97;;;2.90;;
1390;SDS011;690;51.454;7.194;2022-10-03T17:14:11;6.83;;;3.50;;
1390;SDS011;690;51.454;7.194;2022-10-03T17:16:47;9.97;;;3.07;;
1390;SDS011;690;51.454;7.194;2022-10-03T17:19:20;8.20;;;3.17;;
1390;SDS011;690;51.454;7.194;2022-10-03T17:21:57;4.87;;;2.37;;
1390;SDS011;690;51.454;7.194;2022-10-03T17:24:36;8.83;;;2.90;;
1390;SDS011;690;51.454;7.194;2022-10-03T17:27:10;8.00;;;4.20;;
1390;SDS011;690;51.454;7.194;2022-10-03T17:29:43;4.77;;;3.43;;
1390;SDS011;690;51.454;7.194;2022-10-03T17:32:17;5.13;;;3.80;;
1390;SDS011;690;51.454;7.194;2022-10-03T17:34:50;4.87;;;3.93;;
1390;SDS011;690;51.454;7.194;2022-10-03T17:37:31;5.40;;;2.90;;
1390;SDS011;690;51.454;7.194;2022-10-03T17:40:14;6.40;;;2.60;;
1390;SDS011;690;51.454;7.194;2022-10-03T17:42:48;7.63;;;3.03;;
1390;SDS011;690;51.454;7.194;2022-10-03T17:45:30;8.13;;;3.00;;
1390;SDS011;690;51.454;7.194;2022-10-03T17:48:09;6.70;;;4.07;;
1390;SDS011;690;51.454;7.194;2022-10-03T17:50:43;5.87;;;3.40;;
1390;SDS011;690;51.454;7.194;2022-10-03T17:53:19;7.53;;;3.50;;
1390;SDS011;690;51.454;7.194;2022-10-03T17:55:50;8.73;;;4.13;;
1390;SDS011;690;51.454;7.194;2022-10-03T17:58:19;11.00;;;3.20;;
1390;SDS011;690;51.454;7.194;2022-10-03T18:00:56;6.80;;;3.80;;
1390;SDS011;690;51.454;7.194;2022-10-03T18:03:31;10.37;;;3.90;;
1390;SDS011;690;51.454;7.194;2022-10-03T18:06:29;8.50;;;3.60;;
1390;SDS011;690;51.454;7.194;2022-10-03T18:09:06;5.70;;;3.50;;
1390;SDS011;690;51.454;7.194;2022-10-03T18:11:36;9.97;;;4.73;;
1390;SDS011;690;51.454;7.194;2022-10-03T18:14:08;11.13;;;3.53;;
1390;SDS011;690;51.454;7.194;2022-10-03T18:16:42;6.80;;;3.90;;
1390;SDS011;690;51.454;7.194;2022-10-03T18:19:19;5.80;;;3.57;;
1390;SDS011;690;51.454;7.194;2022-10-03T18:21:59;6.57;;;3.70;;
1390;SDS011;690;51.454;7.194;2022-10-03T18:24:39;11.73;;;4.30;;
1390;SDS011;690;51.454;7.194;2022-10-03T18:30:19;5.67;;;4.40;;
1390;SDS011;690;51.454;7.194;2022-10-03T18:32:49;7.13;;;4.60;;
1390;SDS011;690;51.454;7.194;2022-10-03T18:35:20;10.43;;;6.03;;
1390;SDS011;690;51.454;7.194;2022-10-03T18:37:51;8.30;;;5.80;;
1390;SDS011;690;51.454;7.194;2022-10-03T18:40:23;8.30;;;5.80;;
1390;SDS011;690;51.454;7.194;2022-10-03T18:42:52;9.10;;;5.53;;
1390;SDS011;690;51.454;7.194;2022-10-03T18:45:20;9.77;;;5.33;;
1390;SDS011;690;51.454;7.194;2022-10-03T18:47:53;10.53;;;5.30;;
1390;SDS011;690;51.454;7.194;2022-10-03T18:50:27;7.80;;;4.63;;
1390;SDS011;690;51.454;7.194;2022-10-03T18:52:59;8.33;;;4.87;;
1390;SDS011;690;51.454;7.194;2022-10-03T18:55:36;4.17;;;3.63;;
1390;SDS011;690;51.454;7.194;2022-10-03T18:58:10;9.33;;;4.10;;
1390;SDS011;690;51.454;7.194;2022-10-03T19:00:46;6.80;;;4.30;;
1390;SDS011;690;51.454;7.194;2022-10-03T19:03:17;7.60;;;3.17;;
1390;SDS011;690;51.454;7.194;2022-10-03T19:05:52;6.57;;;3.33;;
1390;SDS011;690;51.454;7.194;2022-10-03T19:08:23;4.57;;;2.43;;
1390;SDS011;690;51.454;7.194;2022-10-03T19:10:56;4.73;;;2.53;;
1390;SDS011;690;51.454;7.194;2022-10-03T19:13:28;4.50;;;2.50;;
1390;SDS011;690;51.454;7.194;2022-10-03T19:16:15;5.93;;;3.03;;
1390;SDS011;690;51.454;7.194;2022-10-03T19:18:55;11.30;;;3.20;;
1390;SDS011;690;51.454;7.194;2022-10-03T19:21:35;6.23;;;2.60;;
1390;SDS011;690;51.454;7.194;2022-10-03T19:24:05;8.70;;;3.23;;
1390;SDS011;690;51.454;7.194;2022-10-03T19:26:37;7.57;;;3.30;;
1390;SDS011;690;51.454;7.194;2022-10-03T19:29:11;11.20;;;3.13;;
1390;SDS011;690;51.454;7.194;2022-10-03T19:31:42;6.30;;;2.90;;
1390;SDS011;690;51.454;7.194;2022-10-03T19:34:18;9.43;;;3.47;;
1390;SDS011;690;51.454;7.194;2022-10-03T19:36:51;6.03;;;3.10;;
1390;SDS011;690;51.454;7.194;2022-10-03T19:39:21;5.17;;;2.77;;
1390;SDS011;690;51.454;7.194;2022-10-03T19:41:52;4.93;;;2.60;;